createdAt,value
2023-05-16T00:00:06.810Z,10.00
2023-05-16T00:02:33.706Z,10.00
2023-05-16T00:05:00.583Z,10.00
2023-05-16T00:07:27.438Z,9.90
2023-05-16T00:09:54.127Z,10.00
2023-05-16T00:12:22.668Z,10.00
2023-05-16T00:14:50.359Z,9.90
2023-05-16T00:17:19.725Z,9.80
2023-05-16T00:19:50.061Z,9.70
2023-05-16T00:22:17.165Z,9.60
2023-05-16T00:24:43.895Z,9.60
2023-05-16T00:27:10.670Z,9.50
2023-05-16T00:29:37.374Z,9.60
2023-05-16T00:32:04.546Z,9.60
2023-05-16T00:34:31.402Z,9.60
2023-05-16T00:36:58.105Z,9.70
2023-05-16T00:39:25.327Z,9.80
2023-05-16T00:41:52.327Z,9.80
2023-05-16T00:44:19.410Z,9.80
2023-05-16T00:46:46.615Z,9.80
2023-05-16T00:49:13.444Z,10.60
2023-05-16T00:51:40.435Z,9.90
2023-05-16T00:54:07.549Z,9.90
2023-05-16T00:56:35.681Z,9.90
2023-05-16T00:59:03.860Z,9.90
2023-05-16T01:01:31.129Z,9.90
2023-05-16T01:03:58.367Z,9.90
2023-05-16T01:06:25.145Z,9.90
2023-05-16T01:08:51.870Z,9.90
2023-05-16T01:11:36.673Z,9.80
2023-05-16T01:14:37.471Z,9.70
2023-05-16T01:17:41.899Z,9.70
2023-05-16T01:20:17.130Z,9.80
2023-05-16T01:22:51.367Z,9.80
2023-05-16T01:25:22.338Z,9.80
2023-05-16T01:27:49.951Z,9.80
2023-05-16T01:30:18.739Z,9.70
2023-05-16T01:32:46.155Z,9.70
2023-05-16T01:35:16.157Z,9.60
2023-05-16T01:37:59.041Z,9.60
2023-05-16T01:40:53.540Z,9.60
2023-05-16T01:43:31.725Z,9.50
2023-05-16T01:46:10.361Z,9.30
2023-05-16T01:48:47.729Z,9.30
2023-05-16T01:51:14.559Z,9.20
2023-05-16T01:53:42.418Z,9.10
2023-05-16T01:56:13.688Z,9.00
2023-05-16T01:58:41.786Z,8.90
2023-05-16T02:01:08.558Z,8.90
2023-05-16T02:03:35.619Z,8.80
2023-05-16T02:06:02.359Z,8.70
2023-05-16T02:08:29.379Z,8.70
2023-05-16T02:10:56.254Z,8.60
2023-05-16T02:13:23.010Z,8.60
2023-05-16T02:15:49.760Z,8.70
2023-05-16T02:18:16.819Z,8.70
2023-05-16T02:20:43.906Z,8.60
2023-05-16T02:23:10.587Z,8.60
2023-05-16T02:25:37.331Z,8.70
2023-05-16T02:28:04.338Z,8.80
2023-05-16T02:30:31.021Z,8.90
2023-05-16T02:32:57.777Z,9.00
2023-05-16T02:35:24.927Z,9.00
2023-05-16T02:37:53.259Z,9.10
2023-05-16T02:40:19.951Z,9.10
2023-05-16T02:42:46.610Z,9.20
2023-05-16T02:45:13.535Z,9.30
2023-05-16T02:47:40.635Z,9.30
2023-05-16T02:50:07.712Z,9.30
2023-05-16T02:52:34.401Z,9.40
2023-05-16T02:55:20.250Z,9.40
2023-05-16T02:57:47.732Z,9.50
2023-05-16T03:00:16.234Z,9.50
2023-05-16T03:02:44.871Z,9.50
2023-05-16T03:05:11.894Z,9.60
2023-05-16T03:07:39.664Z,9.60
2023-05-16T03:10:07.037Z,9.60
2023-05-16T03:12:33.699Z,9.60
2023-05-16T03:15:00.462Z,9.70
2023-05-16T03:17:29.663Z,9.70
2023-05-16T03:19:56.383Z,9.70
2023-05-16T03:22:23.052Z,9.70
2023-05-16T03:24:49.762Z,9.70
2023-05-16T03:27:16.781Z,9.70
2023-05-16T03:29:43.418Z,9.80
2023-05-16T03:32:11.750Z,9.80
2023-05-16T03:34:38.498Z,9.80
2023-05-16T03:37:05.904Z,9.80
2023-05-16T03:39:32.562Z,9.80
2023-05-16T03:41:59.214Z,9.80
2023-05-16T03:44:25.915Z,9.80
2023-05-16T03:46:54.192Z,9.90
2023-05-16T03:49:23.825Z,9.90
2023-05-16T03:51:50.516Z,9.90
2023-05-16T03:54:17.450Z,9.90
2023-05-16T03:56:44.293Z,9.90
2023-05-16T03:59:11.013Z,9.90
2023-05-16T04:01:37.835Z,9.90
2023-05-16T04:04:04.841Z,9.90
2023-05-16T04:06:32.015Z,10.00
2023-05-16T04:08:58.808Z,10.00
2023-05-16T04:11:26.622Z,10.00
2023-05-16T04:13:54.241Z,10.00
2023-05-16T04:16:21.141Z,10.00
2023-05-16T04:18:47.990Z,10.00
2023-05-16T04:21:15.384Z,10.00
2023-05-16T04:23:42.490Z,10.00
2023-05-16T04:26:09.187Z,10.00
2023-05-16T04:28:36.046Z,10.00
2023-05-16T04:31:03.239Z,10.00
2023-05-16T04:33:30.062Z,10.00
2023-05-16T04:35:58.501Z,10.00
2023-05-16T04:38:25.251Z,10.00
2023-05-16T04:40:52.486Z,10.10
2023-05-16T04:43:19.946Z,10.10
2023-05-16T04:45:47.182Z,10.20
2023-05-16T04:48:14.086Z,10.20
2023-05-16T04:50:40.950Z,10.20
2023-05-16T04:53:07.954Z,10.30
2023-05-16T04:55:34.652Z,10.40
2023-05-16T04:58:01.355Z,10.40
2023-05-16T05:00:29.349Z,10.40
2023-05-16T05:02:56.328Z,10.50
2023-05-16T05:05:23.231Z,10.50
2023-05-16T05:07:50.301Z,10.70
2023-05-16T05:10:17.152Z,10.70
2023-05-16T05:12:43.833Z,10.80
2023-05-16T05:15:10.718Z,10.80
2023-05-16T05:17:37.890Z,10.90
2023-05-16T05:20:08.672Z,11.00
2023-05-16T05:22:35.430Z,11.10
2023-05-16T05:25:02.164Z,11.20
2023-05-16T05:27:29.028Z,11.30
2023-05-16T05:29:56.195Z,11.30
2023-05-16T05:32:22.905Z,11.40
2023-05-16T05:34:50.696Z,11.60
2023-05-16T05:37:17.449Z,11.70
2023-05-16T05:39:44.289Z,11.80
2023-05-16T05:42:11.968Z,11.90
2023-05-16T05:44:38.919Z,12.00
2023-05-16T05:47:08.795Z,12.10
2023-05-16T05:49:35.994Z,12.20
2023-05-16T05:52:02.786Z,12.20
2023-05-16T05:54:30.251Z,12.20
2023-05-16T05:57:01.128Z,12.30
2023-05-16T05:59:27.829Z,12.50
2023-05-16T06:01:54.705Z,12.60
2023-05-16T06:04:22.030Z,12.70
2023-05-16T06:06:48.722Z,12.80
2023-05-16T06:09:15.595Z,13.00
2023-05-16T06:11:45.564Z,13.20
2023-05-16T06:14:12.408Z,13.40
2023-05-16T06:16:40.523Z,13.50
2023-05-16T06:19:07.454Z,13.70
2023-05-16T06:21:34.292Z,13.90
2023-05-16T06:24:01.001Z,14.10
2023-05-16T06:26:27.960Z,14.20
2023-05-16T06:28:54.884Z,14.30
2023-05-16T06:31:21.694Z,14.40
2023-05-16T06:33:48.402Z,14.40
2023-05-16T06:36:15.129Z,14.50
2023-05-16T06:38:41.819Z,14.60
2023-05-16T06:41:08.482Z,14.50
2023-05-16T06:43:35.615Z,14.60
2023-05-16T06:46:02.805Z,14.70
2023-05-16T06:48:30.215Z,14.80
2023-05-16T06:50:57.658Z,14.90
2023-05-16T06:53:24.545Z,15.00
2023-05-16T06:55:53.177Z,15.00
2023-05-16T06:58:19.907Z,15.00
2023-05-16T07:00:46.951Z,15.30
2023-05-16T07:03:13.817Z,15.50
2023-05-16T07:05:40.649Z,15.80
2023-05-16T07:08:10.229Z,16.00
2023-05-16T07:10:39.412Z,16.70
2023-05-16T07:13:06.938Z,17.20
2023-05-16T07:15:33.922Z,17.90
2023-05-16T07:18:00.901Z,18.20
2023-05-16T07:20:27.667Z,18.60
2023-05-16T07:22:57.417Z,19.00
2023-05-16T07:25:25.499Z,19.40
2023-05-16T07:27:52.454Z,19.50
2023-05-16T07:30:19.304Z,19.80
2023-05-16T07:32:46.134Z,19.90
2023-05-16T07:35:13.480Z,20.10
2023-05-16T07:37:42.424Z,20.10
2023-05-16T07:40:10.741Z,19.80
2023-05-16T07:42:37.493Z,19.70
2023-05-16T07:45:05.362Z,19.10
2023-05-16T07:47:32.117Z,18.70
2023-05-16T07:49:58.891Z,18.20
2023-05-16T07:52:25.718Z,17.70
2023-05-16T07:54:52.457Z,17.30
2023-05-16T07:57:19.443Z,17.20
2023-05-16T07:59:46.987Z,17.10
2023-05-16T08:02:13.930Z,17.30
2023-05-16T08:04:40.840Z,17.40
2023-05-16T08:07:07.829Z,17.40
2023-05-16T08:09:35.316Z,17.40
2023-05-16T08:12:03.793Z,17.70
2023-05-16T08:14:31.914Z,18.20
2023-05-16T08:17:00.462Z,19.10
2023-05-16T08:19:27.741Z,19.90
2023-05-16T08:21:54.951Z,21.10
2023-05-16T08:24:21.797Z,20.90
2023-05-16T08:26:48.621Z,22.00
2023-05-16T08:29:15.464Z,22.40
2023-05-16T08:31:42.397Z,22.40
2023-05-16T08:34:10.428Z,23.00
2023-05-16T08:36:37.979Z,24.80
2023-05-16T08:39:05.118Z,25.50
2023-05-16T08:41:32.158Z,24.70
2023-05-16T08:43:58.968Z,23.50
2023-05-16T08:46:27.580Z,22.60
2023-05-16T08:48:56.950Z,21.70
2023-05-16T08:51:25.423Z,21.20
2023-05-16T08:54:03.290Z,20.90
2023-05-16T08:56:30.680Z,20.80
2023-05-16T08:58:58.472Z,21.00
2023-05-16T09:01:25.488Z,20.90
2023-05-16T09:03:52.817Z,21.40
2023-05-16T09:06:19.788Z,21.50
2023-05-16T09:08:46.908Z,21.10
2023-05-16T09:11:13.756Z,21.10
2023-05-16T09:13:40.565Z,21.40
2023-05-16T09:16:11.724Z,21.20
2023-05-16T09:18:39.720Z,21.30
2023-05-16T09:21:09.878Z,21.60
2023-05-16T09:23:37.469Z,21.60
2023-05-16T09:26:08.003Z,21.40
2023-05-16T09:28:37.165Z,21.00
2023-05-16T09:31:04.039Z,20.70
2023-05-16T09:33:31.218Z,20.50
2023-05-16T09:35:59.828Z,21.20
2023-05-16T09:38:28.261Z,22.20
2023-05-16T09:40:55.717Z,23.20
2023-05-16T09:43:31.453Z,24.70
2023-05-16T09:45:59.973Z,26.20
2023-05-16T09:48:28.563Z,27.40
2023-05-16T09:50:56.011Z,28.10
2023-05-16T09:53:31.154Z,29.40
2023-05-16T09:56:02.583Z,29.70
2023-05-16T09:58:34.843Z,30.20
2023-05-16T10:01:02.643Z,29.80
2023-05-16T10:03:30.108Z,28.80
2023-05-16T10:05:57.514Z,27.70
2023-05-16T10:08:26.203Z,27.50
2023-05-16T10:10:54.691Z,27.60
2023-05-16T10:13:23.344Z,27.30
2023-05-16T10:15:51.816Z,26.90
2023-05-16T10:18:21.329Z,26.30
2023-05-16T10:20:52.387Z,26.70
2023-05-16T10:23:20.630Z,26.70
2023-05-16T10:25:49.048Z,26.10
2023-05-16T10:28:16.708Z,25.20
2023-05-16T10:30:46.074Z,25.40
2023-05-16T10:33:15.046Z,24.90
2023-05-16T10:35:42.605Z,24.50
2023-05-16T10:38:12.137Z,23.60
2023-05-16T10:40:39.952Z,23.00
2023-05-16T10:43:08.916Z,22.10
2023-05-16T10:45:40.213Z,21.30
2023-05-16T10:48:09.711Z,20.50
2023-05-16T10:50:43.529Z,19.90
2023-05-16T10:53:32.464Z,19.50
2023-05-16T10:55:59.197Z,18.90
2023-05-16T10:58:40.749Z,18.30
2023-05-16T11:01:27.278Z,17.70
2023-05-16T11:03:57.683Z,17.30
2023-05-16T11:06:26.512Z,16.90
2023-05-16T11:09:06.153Z,16.50
2023-05-16T11:11:48.606Z,16.40
2023-05-16T11:14:34.404Z,16.40
2023-05-16T11:17:08.522Z,16.50
2023-05-16T11:19:35.311Z,16.40
2023-05-16T11:22:21.618Z,16.30
2023-05-16T11:25:00.838Z,16.40
2023-05-16T11:27:30.961Z,16.50
2023-05-16T11:30:13.236Z,16.90
2023-05-16T11:32:42.352Z,17.30
2023-05-16T11:35:14.484Z,17.70
2023-05-16T11:37:42.633Z,18.10
2023-05-16T11:40:12.179Z,18.20
2023-05-16T11:42:41.549Z,18.50
2023-05-16T11:45:09.098Z,18.60
2023-05-16T11:47:44.618Z,18.50
2023-05-16T11:50:12.366Z,18.80
2023-05-16T11:52:39.527Z,18.90
2023-05-16T11:55:08.054Z,19.00
2023-05-16T11:57:34.880Z,18.90
2023-05-16T12:00:14.531Z,18.70
2023-05-16T12:02:41.319Z,18.60
2023-05-16T12:05:10.384Z,18.30
2023-05-16T12:07:37.937Z,17.80
2023-05-16T12:10:12.676Z,17.50
2023-05-16T12:12:41.571Z,17.30
2023-05-16T12:15:09.644Z,17.20
2023-05-16T12:17:37.758Z,17.10
2023-05-16T12:20:06.229Z,17.10
2023-05-16T12:22:34.047Z,17.10
2023-05-16T12:25:15.378Z,16.90
2023-05-16T12:27:45.479Z,16.90
2023-05-16T12:30:13.128Z,16.80
2023-05-16T12:32:39.922Z,16.70
2023-05-16T12:35:07.788Z,16.40
2023-05-16T12:37:34.555Z,16.30
2023-05-16T12:40:01.417Z,16.40
2023-05-16T12:42:28.179Z,16.70
2023-05-16T12:44:57.914Z,17.00
2023-05-16T12:47:34.832Z,16.80
2023-05-16T12:50:02.321Z,17.10
2023-05-16T12:52:29.433Z,17.40
2023-05-16T12:54:56.128Z,17.60
2023-05-16T12:57:22.813Z,17.60
2023-05-16T12:59:49.505Z,17.70
2023-05-16T13:02:16.819Z,18.10
2023-05-16T13:04:43.504Z,18.30
2023-05-16T13:07:11.969Z,18.60
2023-05-16T13:09:38.793Z,18.80
2023-05-16T13:12:05.868Z,19.20
2023-05-16T13:14:32.769Z,19.70
2023-05-16T13:16:59.487Z,19.90
2023-05-16T13:19:26.357Z,20.00
2023-05-16T13:21:53.153Z,20.00
2023-05-16T13:24:19.847Z,19.90
2023-05-16T13:26:46.613Z,19.80
2023-05-16T13:29:14.732Z,19.50
2023-05-16T13:31:41.586Z,19.20
2023-05-16T13:34:08.362Z,18.90
2023-05-16T13:36:49.091Z,19.00
2023-05-16T13:39:16.698Z,19.50
2023-05-16T13:41:43.512Z,19.90
2023-05-16T13:44:10.345Z,19.80
2023-05-16T13:46:37.418Z,19.90
2023-05-16T13:49:04.486Z,19.90
2023-05-16T13:51:31.835Z,19.80
2023-05-16T13:53:58.821Z,19.70
2023-05-16T13:56:26.020Z,19.30
2023-05-16T13:59:00.753Z,19.00
2023-05-16T14:01:28.278Z,18.70
2023-05-16T14:03:55.079Z,18.20
2023-05-16T14:06:21.993Z,17.70
2023-05-16T14:08:48.720Z,17.50
2023-05-16T14:11:15.415Z,17.30
2023-05-16T14:13:42.136Z,17.30
2023-05-16T14:16:08.863Z,17.30
2023-05-16T14:18:35.702Z,17.10
2023-05-16T14:21:03.007Z,17.30
2023-05-16T14:23:29.822Z,17.30
2023-05-16T14:25:56.593Z,17.10
2023-05-16T14:28:23.449Z,16.70
2023-05-16T14:30:50.143Z,16.00
2023-05-16T14:33:16.910Z,15.60
2023-05-16T14:35:43.696Z,15.30
2023-05-16T14:38:10.648Z,15.00
2023-05-16T14:40:37.536Z,14.70
2023-05-16T14:43:04.487Z,14.60
2023-05-16T14:45:31.307Z,14.50
2023-05-16T14:47:58.214Z,14.60
2023-05-16T14:50:25.660Z,14.80
2023-05-16T14:52:53.193Z,15.10
2023-05-16T14:55:20.996Z,15.60
2023-05-16T15:00:25.983Z,16.20
2023-05-16T15:02:53.196Z,16.40
2023-05-16T15:05:20.393Z,16.40
2023-05-16T15:07:47.291Z,16.40
2023-05-16T15:10:14.030Z,16.50
2023-05-16T15:12:43.703Z,16.50
2023-05-16T15:15:12.584Z,16.40
2023-05-16T15:17:44.336Z,16.80
2023-05-16T15:20:12.553Z,17.00
2023-05-16T15:22:41.051Z,16.90
2023-05-16T15:25:08.771Z,16.80
2023-05-16T15:27:35.510Z,16.60
2023-05-16T15:30:02.408Z,16.40
2023-05-16T15:32:29.364Z,16.20
2023-05-16T15:34:56.172Z,16.00
2023-05-16T15:37:22.980Z,15.80
2023-05-16T15:39:49.764Z,15.80
2023-05-16T15:42:16.601Z,15.70
2023-05-16T15:44:43.383Z,15.70
2023-05-16T15:47:10.722Z,15.60
2023-05-16T15:49:37.713Z,15.60
2023-05-16T15:52:05.122Z,15.60
2023-05-16T15:54:31.877Z,15.60
2023-05-16T15:56:58.794Z,15.60
2023-05-16T15:59:25.706Z,15.50
2023-05-16T16:01:52.714Z,15.50
2023-05-16T16:04:23.223Z,15.40
2023-05-16T16:06:50.605Z,15.20
2023-05-16T16:09:17.635Z,15.10
2023-05-16T16:11:44.398Z,15.10
2023-05-16T16:14:11.320Z,15.00
2023-05-16T16:16:40.467Z,15.00
2023-05-16T16:19:08.575Z,14.90
2023-05-16T16:21:35.892Z,14.80
2023-05-16T16:24:02.782Z,14.90
2023-05-16T16:26:29.573Z,14.90
2023-05-16T16:28:56.351Z,15.10
2023-05-16T16:31:23.138Z,15.20
2023-05-16T16:33:49.887Z,15.30
2023-05-16T16:36:17.221Z,15.50
2023-05-16T16:38:44.025Z,15.70
2023-05-16T16:41:11.351Z,15.70
2023-05-16T16:43:41.075Z,15.60
2023-05-16T16:46:08.410Z,15.70
2023-05-16T16:48:36.221Z,15.60
2023-05-16T16:51:03.626Z,15.70
2023-05-16T16:53:30.513Z,15.80
2023-05-16T16:55:57.229Z,15.90
2023-05-16T16:58:24.057Z,16.00
2023-05-16T17:00:51.454Z,16.00
2023-05-16T17:03:18.328Z,16.00
2023-05-16T17:05:45.108Z,15.80
2023-05-16T17:08:12.207Z,15.70
2023-05-16T17:10:39.328Z,15.60
2023-05-16T17:13:10.364Z,15.70
2023-05-16T17:15:37.752Z,15.60
2023-05-16T17:18:08.606Z,15.50
2023-05-16T17:20:36.171Z,15.50
2023-05-16T17:23:04.453Z,15.50
2023-05-16T17:25:31.442Z,15.50
2023-05-16T17:27:58.269Z,15.40
2023-05-16T17:30:25.128Z,15.40
2023-05-16T17:32:52.004Z,15.40
2023-05-16T17:35:20.204Z,15.30
2023-05-16T17:37:47.681Z,15.10
2023-05-16T17:40:17.008Z,15.00
2023-05-16T17:42:45.090Z,14.90
2023-05-16T17:45:16.265Z,14.90
2023-05-16T17:47:43.395Z,14.80
2023-05-16T17:50:10.904Z,14.80
2023-05-16T17:52:39.767Z,14.70
2023-05-16T17:55:08.776Z,14.60
2023-05-16T17:57:35.553Z,14.60
2023-05-16T18:00:05.117Z,14.40
2023-05-16T18:02:32.099Z,14.30
2023-05-16T18:04:59.529Z,14.20
2023-05-16T18:07:27.356Z,14.00
2023-05-16T18:09:54.444Z,13.90
2023-05-16T18:12:22.082Z,13.80
2023-05-16T18:14:48.966Z,13.80
2023-05-16T18:17:15.842Z,13.70
2023-05-16T18:19:42.850Z,13.70
2023-05-16T18:22:12.420Z,13.60
2023-05-16T18:24:39.949Z,13.50
2023-05-16T18:27:06.942Z,13.40
2023-05-16T18:29:34.355Z,13.40
2023-05-16T18:32:01.301Z,13.40
2023-05-16T18:34:28.388Z,13.30
2023-05-16T18:36:55.156Z,13.20
2023-05-16T18:39:22.032Z,13.10
2023-05-16T18:41:49.051Z,13.10
2023-05-16T18:44:17.339Z,13.00
2023-05-16T18:46:47.339Z,12.90
2023-05-16T18:49:14.446Z,12.90
2023-05-16T18:51:41.605Z,12.80
2023-05-16T18:54:08.490Z,12.70
2023-05-16T18:56:35.564Z,12.60
2023-05-16T18:59:02.432Z,12.40
2023-05-16T19:01:29.373Z,12.30
2023-05-16T19:03:56.313Z,12.10
2023-05-16T19:06:23.565Z,12.00
2023-05-16T19:08:50.460Z,11.80
2023-05-16T19:11:17.957Z,11.70
2023-05-16T19:13:45.670Z,11.60
2023-05-16T19:16:12.581Z,11.50
2023-05-16T19:18:39.576Z,11.40
2023-05-16T19:21:10.967Z,11.30
2023-05-16T19:23:37.846Z,11.30
2023-05-16T19:26:04.652Z,11.20
2023-05-16T19:28:32.563Z,11.10
2023-05-16T19:30:59.367Z,11.10
2023-05-16T19:33:26.166Z,11.00
2023-05-16T19:35:53.632Z,10.80
2023-05-16T19:38:20.609Z,10.80
2023-05-16T19:40:47.433Z,10.70
2023-05-16T19:43:14.129Z,10.60
2023-05-16T19:45:40.923Z,10.50
2023-05-16T19:48:08.771Z,10.50
2023-05-16T19:50:36.437Z,10.50
2023-05-16T19:53:04.014Z,10.40
2023-05-16T19:55:31.430Z,10.40
2023-05-16T19:57:58.546Z,10.40
2023-05-16T20:00:25.531Z,10.30
2023-05-16T20:02:52.518Z,10.20
2023-05-16T20:05:22.731Z,10.10
2023-05-16T20:07:49.833Z,10.10
2023-05-16T20:10:17.586Z,10.00
2023-05-16T20:12:44.822Z,9.90
2023-05-16T20:15:11.963Z,9.90
2023-05-16T20:17:40.050Z,9.80
2023-05-16T20:20:09.024Z,9.90
2023-05-16T20:22:41.167Z,9.80
2023-05-16T20:25:09.417Z,9.80
2023-05-16T20:27:36.224Z,9.70
2023-05-16T20:30:04.225Z,9.70
2023-05-16T20:32:30.964Z,9.80
2023-05-16T20:34:57.743Z,9.70
2023-05-16T20:37:26.684Z,9.70
2023-05-16T20:39:54.425Z,9.60
2023-05-16T20:42:21.812Z,9.50
2023-05-16T20:44:48.602Z,9.40
2023-05-16T20:47:17.102Z,9.40
2023-05-16T20:49:43.986Z,9.30
2023-05-16T20:52:10.843Z,9.30
2023-05-16T20:54:37.683Z,9.30
2023-05-16T20:57:05.128Z,9.30
2023-05-16T20:59:32.321Z,9.20
2023-05-16T21:01:59.161Z,9.10
2023-05-16T21:04:26.093Z,9.00
2023-05-16T21:06:52.836Z,9.00
2023-05-16T21:09:19.583Z,9.00
2023-05-16T21:11:46.322Z,8.80
2023-05-16T21:14:13.145Z,8.70
2023-05-16T21:16:39.838Z,8.60
2023-05-16T21:19:06.745Z,8.50
2023-05-16T21:21:33.837Z,8.50
2023-05-16T21:24:00.724Z,8.40
2023-05-16T21:26:27.486Z,8.30
2023-05-16T21:28:55.761Z,8.20
2023-05-16T21:31:23.248Z,8.20
2023-05-16T21:33:53.268Z,8.40
2023-05-16T21:36:21.106Z,8.20
2023-05-16T21:38:48.525Z,8.00
2023-05-16T21:41:15.368Z,8.10
2023-05-16T21:43:42.054Z,8.00
2023-05-16T21:46:08.819Z,8.00
2023-05-16T21:48:36.128Z,7.90
2023-05-16T21:51:03.787Z,7.80
2023-05-16T21:53:30.567Z,7.80
2023-05-16T21:55:57.421Z,7.60
2023-05-16T21:58:25.223Z,7.60
2023-05-16T22:00:52.024Z,7.60
2023-05-16T22:03:20.952Z,7.70
2023-05-16T22:05:48.171Z,7.70
2023-05-16T22:08:14.976Z,7.70
2023-05-16T22:10:41.751Z,7.70
2023-05-16T22:13:08.634Z,7.70
2023-05-16T22:15:35.466Z,7.70
2023-05-16T22:18:02.525Z,7.70
2023-05-16T22:20:29.755Z,7.70
2023-05-16T22:22:56.719Z,7.70
2023-05-16T22:25:23.598Z,7.80
2023-05-16T22:27:50.541Z,7.70
2023-05-16T22:30:17.318Z,7.70
2023-05-16T22:32:45.819Z,7.70
2023-05-16T22:35:13.658Z,7.70
2023-05-16T22:37:40.397Z,7.60
2023-05-16T22:40:08.391Z,7.50
2023-05-16T22:42:35.086Z,7.50
2023-05-16T22:45:01.836Z,7.50
2023-05-16T22:47:28.991Z,7.50
2023-05-16T22:49:55.860Z,7.50
2023-05-16T22:54:50.196Z,7.50
2023-05-16T22:57:16.986Z,7.40
2023-05-16T22:59:43.708Z,7.40
2023-05-16T23:02:10.392Z,7.20
2023-05-16T23:04:37.126Z,7.20
2023-05-16T23:07:03.986Z,7.00
2023-05-16T23:09:30.709Z,6.90
2023-05-16T23:11:57.426Z,6.80
2023-05-16T23:14:24.204Z,6.70
2023-05-16T23:16:50.951Z,6.60
2023-05-16T23:19:17.759Z,6.60
2023-05-16T23:21:44.648Z,6.40
2023-05-16T23:24:11.435Z,6.30
2023-05-16T23:26:38.214Z,6.20
2023-05-16T23:29:05.038Z,6.20
2023-05-16T23:31:31.872Z,6.00
2023-05-16T23:33:58.664Z,6.00
2023-05-16T23:36:28.352Z,5.90
2023-05-16T23:38:55.049Z,5.90
2023-05-16T23:41:21.738Z,5.80
2023-05-16T23:43:48.679Z,5.90
2023-05-16T23:46:15.592Z,5.90
2023-05-16T23:48:42.374Z,5.90
2023-05-16T23:51:09.199Z,6.00
2023-05-16T23:53:36.098Z,6.10
2023-05-16T23:56:03.528Z,6.10
2023-05-16T23:58:30.259Z,6.10
